sensor_id;sensor_type;location;lat;lon;timestamp;P1;durP1;ratioP1;P2;durP2;ratioP2
22539;SDS011;11436;50.860;4.334;2022-08-19T06:16:18;18.95;;;12.77;;
22539;SDS011;11436;50.860;4.334;2022-08-19T06:18:49;21.10;;;11.90;;
22539;SDS011;11436;50.860;4.334;2022-08-19T06:21:20;20.90;;;12.85;;
22539;SDS011;11436;50.860;4.334;2022-08-19T06:23:47;17.83;;;12.05;;
22539;SDS011;11436;50.860;4.334;2022-08-19T06:26:15;20.05;;;12.10;;
22539;SDS011;11436;50.860;4.334;2022-08-19T06:28:41;22.17;;;12.52;;
22539;SDS011;11436;50.860;4.334;2022-08-19T06:31:11;18.50;;;11.98;;
22539;SDS011;11436;50.860;4.334;2022-08-19T06:33:42;22.77;;;12.30;;
22539;SDS011;11436;50.860;4.334;2022-08-19T06:36:22;21.45;;;11.05;;
22539;SDS011;11436;50.860;4.334;2022-08-19T06:38:55;22.60;;;10.82;;
22539;SDS011;11436;50.860;4.334;2022-08-19T06:41:24;20.92;;;10.88;;
22539;SDS011;11436;50.860;4.334;2022-08-19T06:43:51;14.88;;;9.88;;
22539;SDS011;11436;50.860;4.334;2022-08-19T06:46:17;18.25;;;10.68;;
22539;SDS011;11436;50.860;4.334;2022-08-19T06:48:46;22.20;;;10.30;;
22539;SDS011;11436;50.860;4.334;2022-08-19T06:51:16;17.90;;;10.55;;
22539;SDS011;11436;50.860;4.334;2022-08-19T06:53:45;14.38;;;9.80;;
22539;SDS011;11436;50.860;4.334;2022-08-19T06:56:13;15.30;;;9.80;;
22539;SDS011;11436;50.860;4.334;2022-08-19T06:58:43;18.95;;;10.35;;
22539;SDS011;11436;50.860;4.334;2022-08-19T07:01:09;17.15;;;10.65;;
22539;SDS011;11436;50.860;4.334;2022-08-19T07:18:11;19.38;;;8.82;;
22539;SDS011;11436;50.860;4.334;2022-08-19T07:20:37;14.82;;;8.50;;
22539;SDS011;11436;50.860;4.334;2022-08-19T07:23:04;17.95;;;8.98;;
22539;SDS011;11436;50.860;4.334;2022-08-19T07:25:29;18.67;;;8.60;;
22539;SDS011;11436;50.860;4.334;2022-08-19T07:27:55;14.48;;;8.75;;
22539;SDS011;11436;50.860;4.334;2022-08-19T07:30:21;13.30;;;8.50;;
22539;SDS011;11436;50.860;4.334;2022-08-19T07:32:48;18.83;;;9.00;;
22539;SDS011;11436;50.860;4.334;2022-08-19T07:35:15;14.88;;;7.80;;
22539;SDS011;11436;50.860;4.334;2022-08-19T07:37:44;11.85;;;7.25;;
22539;SDS011;11436;50.860;4.334;2022-08-19T07:40:11;13.73;;;7.80;;
22539;SDS011;11436;50.860;4.334;2022-08-19T07:42:38;14.48;;;7.47;;
22539;SDS011;11436;50.860;4.334;2022-08-19T07:45:04;12.35;;;7.10;;
22539;SDS011;11436;50.860;4.334;2022-08-19T07:47:31;13.43;;;7.40;;
22539;SDS011;11436;50.860;4.334;2022-08-19T07:49:56;12.77;;;7.75;;
22539;SDS011;11436;50.860;4.334;2022-08-19T07:52:22;11.60;;;6.78;;
22539;SDS011;11436;50.860;4.334;2022-08-19T07:54:48;13.38;;;7.10;;
22539;SDS011;11436;50.860;4.334;2022-08-19T07:57:14;9.93;;;7.57;;
22539;SDS011;11436;50.860;4.334;2022-08-19T07:59:41;10.65;;;6.72;;
22539;SDS011;11436;50.860;4.334;2022-08-19T08:02:07;20.15;;;7.32;;
22539;SDS011;11436;50.860;4.334;2022-08-19T08:04:34;18.73;;;7.18;;
22539;SDS011;11436;50.860;4.334;2022-08-19T08:07:18;12.05;;;6.72;;
22539;SDS011;11436;50.860;4.334;2022-08-19T08:10:04;16.83;;;8.18;;
22539;SDS011;11436;50.860;4.334;2022-08-19T08:12:33;13.50;;;7.28;;
22539;SDS011;11436;50.860;4.334;2022-08-19T08:15:09;8.48;;;6.35;;
22539;SDS011;11436;50.860;4.334;2022-08-19T08:17:41;12.88;;;7.22;;
22539;SDS011;11436;50.860;4.334;2022-08-19T08:20:07;10.40;;;6.55;;
22539;SDS011;11436;50.860;4.334;2022-08-19T08:22:33;10.85;;;6.60;;
22539;SDS011;11436;50.860;4.334;2022-08-19T08:25:20;9.60;;;6.20;;
22539;SDS011;11436;50.860;4.334;2022-08-19T08:27:48;9.30;;;6.30;;
22539;SDS011;11436;50.860;4.334;2022-08-19T08:30:19;11.20;;;6.40;;
22539;SDS011;11436;50.860;4.334;2022-08-19T08:32:47;9.57;;;6.10;;
22539;SDS011;11436;50.860;4.334;2022-08-19T08:35:16;9.48;;;5.78;;
22539;SDS011;11436;50.860;4.334;2022-08-19T08:37:44;12.20;;;6.28;;
22539;SDS011;11436;50.860;4.334;2022-08-19T08:40:30;10.48;;;5.93;;
22539;SDS011;11436;50.860;4.334;2022-08-19T08:43:27;10.32;;;5.75;;
22539;SDS011;11436;50.860;4.334;2022-08-19T09:38:11;8.20;;;4.95;;
22539;SDS011;11436;50.860;4.334;2022-08-19T09:40:37;9.32;;;5.43;;
22539;SDS011;11436;50.860;4.334;2022-08-19T09:43:03;9.15;;;5.50;;
22539;SDS011;11436;50.860;4.334;2022-08-19T09:45:30;10.05;;;5.65;;
22539;SDS011;11436;50.860;4.334;2022-08-19T09:47:56;8.85;;;5.10;;
22539;SDS011;11436;50.860;4.334;2022-08-19T09:50:23;11.00;;;5.90;;
22539;SDS011;11436;50.860;4.334;2022-08-19T09:52:49;12.40;;;5.57;;
22539;SDS011;11436;50.860;4.334;2022-08-19T09:55:17;8.70;;;5.50;;
22539;SDS011;11436;50.860;4.334;2022-08-19T09:57:43;11.63;;;6.03;;
22539;SDS011;11436;50.860;4.334;2022-08-19T10:00:09;7.55;;;4.95;;
22539;SDS011;11436;50.860;4.334;2022-08-19T10:02:35;5.90;;;5.18;;
22539;SDS011;11436;50.860;4.334;2022-08-19T10:05:01;7.10;;;5.30;;
22539;SDS011;11436;50.860;4.334;2022-08-19T10:07:45;5.30;;;4.45;;
22539;SDS011;11436;50.860;4.334;2022-08-19T10:10:11;6.22;;;4.78;;
22539;SDS011;11436;50.860;4.334;2022-08-19T10:12:37;9.18;;;5.07;;
22539;SDS011;11436;50.860;4.334;2022-08-19T10:15:04;5.50;;;4.10;;
22539;SDS011;11436;50.860;4.334;2022-08-19T10:17:31;7.97;;;5.47;;
22539;SDS011;11436;50.860;4.334;2022-08-19T10:19:58;6.10;;;4.50;;
22539;SDS011;11436;50.860;4.334;2022-08-19T10:22:24;8.00;;;5.90;;
22539;SDS011;11436;50.860;4.334;2022-08-19T10:24:50;7.45;;;5.18;;
22539;SDS011;11436;50.860;4.334;2022-08-19T10:27:17;8.57;;;5.72;;
22539;SDS011;11436;50.860;4.334;2022-08-19T10:29:43;7.75;;;5.82;;
22539;SDS011;11436;50.860;4.334;2022-08-19T10:32:08;27.55;;;16.13;;
22539;SDS011;11436;50.860;4.334;2022-08-19T10:34:36;10.02;;;6.13;;
22539;SDS011;11436;50.860;4.334;2022-08-19T10:37:03;9.63;;;5.70;;
22539;SDS011;11436;50.860;4.334;2022-08-19T10:39:31;10.52;;;5.90;;
22539;SDS011;11436;50.860;4.334;2022-08-19T10:41:59;10.40;;;6.30;;
22539;SDS011;11436;50.860;4.334;2022-08-19T10:44:29;7.75;;;5.45;;
22539;SDS011;11436;50.860;4.334;2022-08-19T10:46:55;13.35;;;6.65;;
22539;SDS011;11436;50.860;4.334;2022-08-19T10:49:20;7.63;;;6.38;;
22539;SDS011;11436;50.860;4.334;2022-08-19T10:51:47;7.47;;;5.85;;
22539;SDS011;11436;50.860;4.334;2022-08-19T10:54:32;10.07;;;6.65;;
22539;SDS011;11436;50.860;4.334;2022-08-19T10:57:16;8.32;;;6.25;;
22539;SDS011;11436;50.860;4.334;2022-08-19T10:59:42;8.95;;;6.63;;
22539;SDS011;11436;50.860;4.334;2022-08-19T11:02:10;10.23;;;6.78;;
22539;SDS011;11436;50.860;4.334;2022-08-19T11:04:37;11.40;;;6.55;;
22539;SDS011;11436;50.860;4.334;2022-08-19T11:07:04;8.57;;;6.85;;
22539;SDS011;11436;50.860;4.334;2022-08-19T11:09:30;9.90;;;7.03;;
22539;SDS011;11436;50.860;4.334;2022-08-19T11:11:57;7.85;;;6.60;;
22539;SDS011;11436;50.860;4.334;2022-08-19T11:14:23;10.38;;;6.97;;
22539;SDS011;11436;50.860;4.334;2022-08-19T11:16:50;9.25;;;6.18;;
22539;SDS011;11436;50.860;4.334;2022-08-19T11:19:18;6.82;;;6.13;;
22539;SDS011;11436;50.860;4.334;2022-08-19T11:21:45;6.10;;;4.20;;
22539;SDS011;11436;50.860;4.334;2022-08-19T11:24:23;10.95;;;5.20;;
22539;SDS011;11436;50.860;4.334;2022-08-19T11:26:50;8.38;;;4.97;;
22539;SDS011;11436;50.860;4.334;2022-08-19T11:29:19;7.90;;;5.70;;
22539;SDS011;11436;50.860;4.334;2022-08-19T11:31:47;10.13;;;6.82;;
22539;SDS011;11436;50.860;4.334;2022-08-19T11:34:16;14.15;;;9.30;;
22539;SDS011;11436;50.860;4.334;2022-08-19T11:36:45;12.77;;;9.45;;
22539;SDS011;11436;50.860;4.334;2022-08-19T11:39:14;14.20;;;9.38;;
22539;SDS011;11436;50.860;4.334;2022-08-19T11:41:42;11.20;;;9.35;;
22539;SDS011;11436;50.860;4.334;2022-08-19T11:44:08;12.35;;;8.93;;
22539;SDS011;11436;50.860;4.334;2022-08-19T11:46:35;12.73;;;7.88;;
22539;SDS011;11436;50.860;4.334;2022-08-19T11:49:01;11.48;;;7.47;;
22539;SDS011;11436;50.860;4.334;2022-08-19T11:51:30;11.20;;;7.88;;
22539;SDS011;11436;50.860;4.334;2022-08-19T11:53:58;9.07;;;7.40;;
22539;SDS011;11436;50.860;4.334;2022-08-19T11:56:25;8.52;;;6.53;;
22539;SDS011;11436;50.860;4.334;2022-08-19T11:58:52;8.73;;;7.40;;
22539;SDS011;11436;50.860;4.334;2022-08-19T12:01:20;11.43;;;7.65;;
22539;SDS011;11436;50.860;4.334;2022-08-19T12:03:48;11.68;;;7.13;;
22539;SDS011;11436;50.860;4.334;2022-08-19T12:06:17;16.05;;;7.97;;
22539;SDS011;11436;50.860;4.334;2022-08-19T12:08:45;6.72;;;5.40;;
22539;SDS011;11436;50.860;4.334;2022-08-19T12:11:12;7.32;;;5.35;;
22539;SDS011;11436;50.860;4.334;2022-08-19T12:13:39;12.88;;;6.20;;
22539;SDS011;11436;50.860;4.334;2022-08-19T12:16:13;9.63;;;5.25;;
22539;SDS011;11436;50.860;4.334;2022-08-19T12:18:42;10.30;;;5.50;;
22539;SDS011;11436;50.860;4.334;2022-08-19T12:21:15;11.77;;;5.68;;
22539;SDS011;11436;50.860;4.334;2022-08-19T12:23:43;6.00;;;4.50;;
22539;SDS011;11436;50.860;4.334;2022-08-19T12:26:12;7.95;;;4.07;;
22539;SDS011;11436;50.860;4.334;2022-08-19T12:28:38;8.15;;;4.32;;
22539;SDS011;11436;50.860;4.334;2022-08-19T12:31:05;5.53;;;4.28;;
22539;SDS011;11436;50.860;4.334;2022-08-19T12:33:31;5.15;;;3.47;;
22539;SDS011;11436;50.860;4.334;2022-08-19T12:36:01;6.15;;;4.28;;
22539;SDS011;11436;50.860;4.334;2022-08-19T12:38:29;8.30;;;3.27;;
22539;SDS011;11436;50.860;4.334;2022-08-19T12:40:55;4.88;;;3.05;;
22539;SDS011;11436;50.860;4.334;2022-08-19T12:44:25;5.03;;;3.63;;
22539;SDS011;11436;50.860;4.334;2022-08-19T12:46:51;4.68;;;3.22;;
22539;SDS011;11436;50.860;4.334;2022-08-19T12:49:17;5.80;;;2.80;;
22539;SDS011;11436;50.860;4.334;2022-08-19T12:51:43;7.07;;;3.20;;
22539;SDS011;11436;50.860;4.334;2022-08-19T12:54:09;3.25;;;2.40;;
22539;SDS011;11436;50.860;4.334;2022-08-19T12:56:35;4.97;;;2.83;;
22539;SDS011;11436;50.860;4.334;2022-08-19T12:59:02;6.75;;;2.50;;
22539;SDS011;11436;50.860;4.334;2022-08-19T13:01:28;6.68;;;2.50;;
22539;SDS011;11436;50.860;4.334;2022-08-19T13:03:58;4.55;;;3.03;;
22539;SDS011;11436;50.860;4.334;2022-08-19T13:06:24;2.80;;;2.30;;
22539;SDS011;11436;50.860;4.334;2022-08-19T13:08:51;2.58;;;2.20;;
22539;SDS011;11436;50.860;4.334;2022-08-19T13:11:17;3.10;;;2.05;;
22539;SDS011;11436;50.860;4.334;2022-08-19T13:13:45;5.00;;;2.25;;
22539;SDS011;11436;50.860;4.334;2022-08-19T13:16:13;3.35;;;3.03;;
22539;SDS011;11436;50.860;4.334;2022-08-19T13:18:40;4.15;;;3.10;;
22539;SDS011;11436;50.860;4.334;2022-08-19T13:21:08;7.57;;;2.80;;
22539;SDS011;11436;50.860;4.334;2022-08-19T13:23:36;5.63;;;2.42;;
22539;SDS011;11436;50.860;4.334;2022-08-19T13:26:03;4.95;;;2.63;;
22539;SDS011;11436;50.860;4.334;2022-08-19T13:28:30;3.70;;;2.55;;
22539;SDS011;11436;50.860;4.334;2022-08-19T13:31:16;6.72;;;2.28;;
22539;SDS011;11436;50.860;4.334;2022-08-19T13:34:02;4.75;;;2.78;;
22539;SDS011;11436;50.860;4.334;2022-08-19T13:36:28;3.40;;;2.63;;
22539;SDS011;11436;50.860;4.334;2022-08-19T13:38:54;8.98;;;2.22;;
22539;SDS011;11436;50.860;4.334;2022-08-19T13:41:21;5.82;;;2.22;;
22539;SDS011;11436;50.860;4.334;2022-08-19T13:43:47;5.13;;;1.90;;
22539;SDS011;11436;50.860;4.334;2022-08-19T13:46:14;2.65;;;2.30;;
22539;SDS011;11436;50.860;4.334;2022-08-19T13:48:40;5.07;;;1.80;;
22539;SDS011;11436;50.860;4.334;2022-08-19T13:51:07;3.75;;;2.33;;
22539;SDS011;11436;50.860;4.334;2022-08-19T13:53:37;6.30;;;2.60;;
22539;SDS011;11436;50.860;4.334;2022-08-19T13:56:07;3.92;;;2.10;;
22539;SDS011;11436;50.860;4.334;2022-08-19T13:58:35;5.57;;;3.07;;
22539;SDS011;11436;50.860;4.334;2022-08-19T14:01:02;3.92;;;2.67;;
22539;SDS011;11436;50.860;4.334;2022-08-19T14:03:28;3.03;;;2.30;;
22539;SDS011;11436;50.860;4.334;2022-08-19T14:05:55;9.10;;;2.40;;
22539;SDS011;11436;50.860;4.334;2022-08-19T14:08:21;6.47;;;4.68;;
22539;SDS011;11436;50.860;4.334;2022-08-19T14:10:48;2.85;;;2.40;;
22539;SDS011;11436;50.860;4.334;2022-08-19T14:13:18;4.38;;;2.30;;
22539;SDS011;11436;50.860;4.334;2022-08-19T14:15:45;4.57;;;3.00;;
22539;SDS011;11436;50.860;4.334;2022-08-19T14:18:12;6.78;;;2.42;;
22539;SDS011;11436;50.860;4.334;2022-08-19T14:20:39;4.72;;;2.90;;
22539;SDS011;11436;50.860;4.334;2022-08-19T14:23:05;6.78;;;2.95;;
22539;SDS011;11436;50.860;4.334;2022-08-19T14:25:32;3.85;;;2.80;;
22539;SDS011;11436;50.860;4.334;2022-08-19T14:27:59;5.88;;;2.92;;
22539;SDS011;11436;50.860;4.334;2022-08-19T14:30:34;4.38;;;2.58;;
22539;SDS011;11436;50.860;4.334;2022-08-19T14:33:02;4.50;;;2.60;;
22539;SDS011;11436;50.860;4.334;2022-08-19T14:35:30;3.95;;;2.45;;
22539;SDS011;11436;50.860;4.334;2022-08-19T14:38:01;6.88;;;2.83;;
22539;SDS011;11436;50.860;4.334;2022-08-19T14:40:28;6.38;;;2.58;;
22539;SDS011;11436;50.860;4.334;2022-08-19T14:42:56;4.15;;;2.72;;
22539;SDS011;11436;50.860;4.334;2022-08-19T14:45:27;5.38;;;3.35;;
22539;SDS011;11436;50.860;4.334;2022-08-19T14:47:54;5.78;;;3.08;;
22539;SDS011;11436;50.860;4.334;2022-08-19T14:50:22;6.07;;;2.80;;
22539;SDS011;11436;50.860;4.334;2022-08-19T14:52:48;4.72;;;3.22;;
22539;SDS011;11436;50.860;4.334;2022-08-19T14:55:16;8.35;;;3.63;;
22539;SDS011;11436;50.860;4.334;2022-08-19T14:57:42;7.15;;;2.55;;
22539;SDS011;11436;50.860;4.334;2022-08-19T15:00:09;2.65;;;1.67;;
22539;SDS011;11436;50.860;4.334;2022-08-19T15:02:38;3.88;;;1.35;;
22539;SDS011;11436;50.860;4.334;2022-08-19T15:05:04;1.50;;;1.10;;
22539;SDS011;11436;50.860;4.334;2022-08-19T15:07:31;1.80;;;0.93;;
22539;SDS011;11436;50.860;4.334;2022-08-19T15:09:58;2.03;;;1.35;;
22539;SDS011;11436;50.860;4.334;2022-08-19T15:12:24;1.98;;;1.33;;
22539;SDS011;11436;50.860;4.334;2022-08-19T15:14:50;1.50;;;1.23;;
22539;SDS011;11436;50.860;4.334;2022-08-19T15:17:17;2.38;;;1.38;;
22539;SDS011;11436;50.860;4.334;2022-08-19T15:19:43;2.25;;;1.00;;
22539;SDS011;11436;50.860;4.334;2022-08-19T15:22:10;2.15;;;1.30;;
22539;SDS011;11436;50.860;4.334;2022-08-19T15:24:35;1.40;;;1.30;;
22539;SDS011;11436;50.860;4.334;2022-08-19T15:27:03;4.38;;;2.00;;
22539;SDS011;11436;50.860;4.334;2022-08-19T15:29:30;2.42;;;1.20;;
22539;SDS011;11436;50.860;4.334;2022-08-19T15:31:57;7.40;;;1.50;;
22539;SDS011;11436;50.860;4.334;2022-08-19T15:34:24;3.15;;;1.80;;
22539;SDS011;11436;50.860;4.334;2022-08-19T15:36:54;2.53;;;1.52;;
22539;SDS011;11436;50.860;4.334;2022-08-19T15:39:19;3.55;;;1.80;;
22539;SDS011;11436;50.860;4.334;2022-08-19T15:41:45;5.72;;;1.73;;
22539;SDS011;11436;50.860;4.334;2022-08-19T15:44:12;2.92;;;1.50;;
22539;SDS011;11436;50.860;4.334;2022-08-19T15:46:41;2.47;;;1.50;;
22539;SDS011;11436;50.860;4.334;2022-08-19T15:49:08;6.72;;;2.03;;
22539;SDS011;11436;50.860;4.334;2022-08-19T15:51:36;2.47;;;1.60;;
22539;SDS011;11436;50.860;4.334;2022-08-19T15:54:06;10.73;;;2.80;;
22539;SDS011;11436;50.860;4.334;2022-08-19T15:56:35;6.32;;;2.97;;
22539;SDS011;11436;50.860;4.334;2022-08-19T15:59:31;23.17;;;18.17;;
22539;SDS011;11436;50.860;4.334;2022-08-19T16:02:17;9.93;;;3.10;;
22539;SDS011;11436;50.860;4.334;2022-08-19T16:05:05;6.30;;;3.13;;
22539;SDS011;11436;50.860;4.334;2022-08-19T16:07:51;4.40;;;2.70;;
22539;SDS011;11436;50.860;4.334;2022-08-19T16:10:18;6.65;;;2.47;;
22539;SDS011;11436;50.860;4.334;2022-08-19T16:12:44;5.55;;;3.35;;
22539;SDS011;11436;50.860;4.334;2022-08-19T16:15:10;6.80;;;3.38;;
22539;SDS011;11436;50.860;4.334;2022-08-19T16:17:38;7.57;;;3.50;;
22539;SDS011;11436;50.860;4.334;2022-08-19T16:20:05;5.95;;;3.00;;
22539;SDS011;11436;50.860;4.334;2022-08-19T16:22:35;7.47;;;4.00;;
22539;SDS011;11436;50.860;4.334;2022-08-19T16:25:02;6.68;;;3.35;;
22539;SDS011;11436;50.860;4.334;2022-08-19T16:27:29;5.10;;;3.05;;
22539;SDS011;11436;50.860;4.334;2022-08-19T16:29:55;10.18;;;3.33;;
22539;SDS011;11436;50.860;4.334;2022-08-19T16:32:21;10.80;;;3.33;;
22539;SDS011;11436;50.860;4.334;2022-08-19T16:34:48;4.72;;;2.30;;
22539;SDS011;11436;50.860;4.334;2022-08-19T16:37:16;6.68;;;3.17;;
22539;SDS011;11436;50.860;4.334;2022-08-19T16:39:42;9.27;;;3.95;;
22539;SDS011;11436;50.860;4.334;2022-08-19T16:42:08;6.32;;;3.45;;
22539;SDS011;11436;50.860;4.334;2022-08-19T16:44:36;5.80;;;3.60;;
22539;SDS011;11436;50.860;4.334;2022-08-19T16:47:06;6.43;;;3.15;;
22539;SDS011;11436;50.860;4.334;2022-08-19T16:49:33;8.13;;;4.07;;
22539;SDS011;11436;50.860;4.334;2022-08-19T16:51:59;8.68;;;3.70;;
22539;SDS011;11436;50.860;4.334;2022-08-19T16:54:26;6.75;;;3.30;;
22539;SDS011;11436;50.860;4.334;2022-08-19T16:56:53;6.80;;;3.38;;
22539;SDS011;11436;50.860;4.334;2022-08-19T16:59:20;6.60;;;3.17;;
22539;SDS011;11436;50.860;4.334;2022-08-19T17:01:48;4.70;;;2.33;;
22539;SDS011;11436;50.860;4.334;2022-08-19T17:04:16;3.67;;;2.25;;
22539;SDS011;11436;50.860;4.334;2022-08-19T17:06:43;8.68;;;4.70;;
22539;SDS011;11436;50.860;4.334;2022-08-19T17:09:10;7.97;;;4.13;;
22539;SDS011;11436;50.860;4.334;2022-08-19T17:11:36;4.30;;;3.10;;
22539;SDS011;11436;50.860;4.334;2022-08-19T17:14:02;4.43;;;2.95;;
22539;SDS011;11436;50.860;4.334;2022-08-19T17:16:31;12.25;;;7.03;;
22539;SDS011;11436;50.860;4.334;2022-08-19T17:18:59;5.95;;;2.50;;
22539;SDS011;11436;50.860;4.334;2022-08-19T17:21:28;5.43;;;3.00;;
22539;SDS011;11436;50.860;4.334;2022-08-19T17:23:58;4.93;;;3.28;;
22539;SDS011;11436;50.860;4.334;2022-08-19T17:26:25;3.92;;;2.65;;
22539;SDS011;11436;50.860;4.334;2022-08-19T17:28:55;4.68;;;2.72;;
22539;SDS011;11436;50.860;4.334;2022-08-19T17:31:27;4.88;;;2.55;;
22539;SDS011;11436;50.860;4.334;2022-08-19T18:29:57;4.95;;;3.30;;
22539;SDS011;11436;50.860;4.334;2022-08-19T18:32:24;4.35;;;3.30;;
22539;SDS011;11436;50.860;4.334;2022-08-19T18:34:51;6.85;;;3.53;;
22539;SDS011;11436;50.860;4.334;2022-08-19T18:37:17;5.10;;;3.50;;
22539;SDS011;11436;50.860;4.334;2022-08-19T18:39:43;9.45;;;4.10;;
22539;SDS011;11436;50.860;4.334;2022-08-19T18:42:28;6.18;;;3.67;;
22539;SDS011;11436;50.860;4.334;2022-08-19T18:45:12;8.35;;;4.20;;
22539;SDS011;11436;50.860;4.334;2022-08-19T18:47:57;8.00;;;3.88;;
22539;SDS011;11436;50.860;4.334;2022-08-19T18:50:41;9.88;;;5.35;;
22539;SDS011;11436;50.860;4.334;2022-08-19T18:53:08;8.40;;;4.70;;
22539;SDS011;11436;50.860;4.334;2022-08-19T18:55:34;11.38;;;5.50;;
22539;SDS011;11436;50.860;4.334;2022-08-19T18:58:01;12.98;;;5.63;;
22539;SDS011;11436;50.860;4.334;2022-08-19T19:00:28;8.20;;;4.65;;
22539;SDS011;11436;50.860;4.334;2022-08-19T19:02:55;6.57;;;3.92;;
22539;SDS011;11436;50.860;4.334;2022-08-19T19:05:21;12.63;;;4.93;;
22539;SDS011;11436;50.860;4.334;2022-08-19T19:07:48;8.43;;;4.75;;
22539;SDS011;11436;50.860;4.334;2022-08-19T19:10:14;7.50;;;5.13;;
22539;SDS011;11436;50.860;4.334;2022-08-19T19:12:40;7.93;;;4.93;;
22539;SDS011;11436;50.860;4.334;2022-08-19T19:15:09;6.03;;;4.30;;
22539;SDS011;11436;50.860;4.334;2022-08-19T19:17:36;6.47;;;4.30;;
22539;SDS011;11436;50.860;4.334;2022-08-19T19:20:04;4.57;;;3.92;;
22539;SDS011;11436;50.860;4.334;2022-08-19T19:22:30;4.22;;;3.40;;
22539;SDS011;11436;50.860;4.334;2022-08-19T19:24:55;6.15;;;3.25;;
22539;SDS011;11436;50.860;4.334;2022-08-19T19:27:23;7.10;;;4.68;;
22539;SDS011;11436;50.860;4.334;2022-08-19T19:29:49;9.45;;;4.07;;
22539;SDS011;11436;50.860;4.334;2022-08-19T19:32:18;5.20;;;3.05;;
22539;SDS011;11436;50.860;4.334;2022-08-19T19:34:46;3.40;;;3.08;;
